Williamston, North Carolina
Current Conditions -  °F | °C
As of 3:55 AM on Wednesday 26 Nov 2014 (Local Time) from KOCW Reporting Station
Overcast Overcast  
Wind Chill: 56°   Ceiling: 300
Heat Index: 56°   Visibility: 7mi
Dew Point: 55°   Wind: 8mph
Humidity: 98%   Direction: 60°ENE
Pressure: 29.87"   Gusts: NA
Location:  35.85°N, 77.06°W
Report Text: KOCW 260855Z AUTO 06007KT 7SM OVC003 13/13 A2987 RMK AO2 60005 T01330130
Loading
Personal Weather Stations






























Interactive Weather Map New forecast layout! Learn more

10-Day Weather Forecast

Advertisements
Track Severe Weather on mobile